Time;durP1;ratioP1;P1;durP2;ratioP2;P2;SDS_P1;SDS_P2;PMS_P1;PMS_P2;Temp;Humidity;BMP_temperature;BMP_pressure;BME280_temperature;BME280_humidity;BME280_pressure;Samples;Min_cycle;Max_cycle;Signal;HPM_P1;HPM_P2
2024/01/25 00:01:19;;;;;;;1.73;1.63;;;;;;;4.51;66.04;95823.91;5091157;28;20493;-57
2024/01/25 00:03:48;;;;;;;1.50;1.33;;;;;;;4.56;65.84;95831.13;5091282;28;21029;-57
2024/01/25 00:06:17;;;;;;;2.60;0.67;;;;;;;4.58;65.48;95824.66;5091033;28;20440;-57
2024/01/25 00:08:45;;;;;;;1.07;0.93;;;;;;;4.81;71.96;95827.41;5091709;28;20436;-56
2024/01/25 00:11:14;;;;;;;3.90;1.00;;;;;;;4.79;67.23;95824.22;5091662;28;20429;-57
2024/01/25 00:13:43;;;;;;;2.50;1.13;;;;;;;4.68;65.32;95824.94;5091665;28;20448;-57
2024/01/25 00:16:11;;;;;;;0.60;0.60;;;;;;;4.33;65.37;95826.53;5090371;28;20456;-57
2024/01/25 00:18:42;;;;;;;1.57;1.00;;;;;;;3.22;66.96;95781.91;5092028;28;20436;-58
2024/01/25 00:21:11;;;;;;;1.90;1.80;;;;;;;3.70;67.33;95823.28;5065376;28;21018;-58
2024/01/25 00:23:40;;;;;;;0.70;0.70;;;;;;;3.56;68.07;95829.66;5091183;28;20440;-58
2024/01/25 00:26:08;;;;;;;2.20;1.30;;;;;;;3.24;69.71;95831.47;5091154;28;20909;-58
2024/01/25 00:28:37;;;;;;;6.53;1.57;;;;;;;2.86;71.22;95841.16;5090933;28;20487;-58
2024/01/25 00:31:05;;;;;;;2.37;2.27;;;;;;;2.62;72.97;95853.13;5090575;28;20527;-57
2024/01/25 00:33:34;;;;;;;2.50;1.67;;;;;;;2.83;73.20;95845.00;5090750;28;20489;-57
2024/01/25 00:36:06;;;;;;;2.80;2.30;;;;;;;3.42;71.23;95852.50;5088423;28;20476;-57
2024/01/25 00:38:35;;;;;;;4.27;2.60;;;;;;;3.70;69.54;95842.44;5091346;28;20443;-57
2024/01/25 00:41:07;;;;;;;1.70;1.70;;;;;;;3.75;70.41;95813.75;5091564;28;20475;-58
2024/01/25 00:43:36;;;;;;;0.67;0.67;;;;;;;3.89;69.69;95850.38;5090371;28;20440;-58
2024/01/25 00:46:05;;;;;;;5.70;2.47;;;;;;;3.62;71.35;95863.66;5091568;28;20444;-58
2024/01/25 00:48:35;;;;;;;2.00;1.50;;;;;;;3.77;70.51;95858.09;5091482;28;20432;-57
2024/01/25 00:51:08;;;;;;;4.50;1.17;;;;;;;3.95;69.48;95844.28;5091255;28;20440;-57
2024/01/25 00:53:38;;;;;;;2.17;0.60;;;;;;;4.06;69.36;95838.31;5091213;28;20478;-58
2024/01/25 00:56:08;;;;;;;2.03;1.40;;;;;;;3.95;70.46;95845.06;5090355;28;20483;-56
2024/01/25 00:58:37;;;;;;;2.43;1.13;;;;;;;3.25;74.18;95833.06;5091270;28;20867;-57
2024/01/25 01:01:06;;;;;;;1.03;0.90;;;;;;;2.49;75.52;95759.78;5091360;28;20451;-57
2024/01/25 01:03:36;;;;;;;6.97;2.40;;;;;;;3.23;76.95;95832.50;5091299;28;20467;-57
2024/01/25 01:06:07;;;;;;;2.43;1.53;;;;;;;3.25;77.20;95837.50;5090870;28;20465;-57
2024/01/25 01:08:37;;;;;;;3.60;1.53;;;;;;;3.63;74.35;95835.63;5091120;28;20444;-57
2024/01/25 01:11:06;;;;;;;1.47;1.47;;;;;;;3.91;72.13;95837.84;5090879;28;20440;-58
2024/01/25 01:13:35;;;;;;;4.03;2.17;;;;;;;3.97;71.34;95837.78;5091386;28;20432;-58
2024/01/25 01:16:04;;;;;;;3.53;1.53;;;;;;;4.12;70.26;95834.84;5090502;28;21026;-58
2024/01/25 01:18:32;;;;;;;2.70;2.50;;;;;;;4.27;69.30;95811.69;5090662;28;20900;-58
2024/01/25 01:21:01;;;;;;;1.17;1.00;;;;;;;4.16;69.80;95796.66;5090040;28;20444;-58
2024/01/25 01:23:31;;;;;;;0.93;0.53;;;;;;;4.33;68.99;95795.84;5090990;28;20448;-58
2024/01/25 01:26:00;;;;;;;1.60;1.30;;;;;;;4.31;69.12;95791.84;5064727;28;20448;-58
2024/01/25 01:28:30;;;;;;;3.20;1.80;;;;;;;4.00;69.67;95776.25;5093537;28;20444;-57
2024/01/25 01:30:58;;;;;;;1.50;1.40;;;;;;;4.15;70.06;95740.75;5094065;28;20459;-58
2024/01/25 01:33:27;;;;;;;0.50;0.40;;;;;;;4.54;71.54;95751.81;5093526;28;20447;-58
2024/01/25 01:35:56;;;;;;;2.60;2.47;;;;;;;4.48;69.11;95759.53;5094205;28;20480;-58
2024/01/25 01:38:24;;;;;;;3.10;2.90;;;;;;;4.33;68.47;95763.56;5094016;28;20436;-58
2024/01/25 01:40:54;;;;;;;1.40;1.40;;;;;;;4.22;69.89;95762.50;5094913;28;20440;-57
2024/01/25 01:43:23;;;;;;;3.23;1.93;;;;;;;3.96;69.76;95778.50;5094628;28;20432;-57
2024/01/25 01:45:52;;;;;;;1.87;1.77;;;;;;;3.12;75.37;95771.09;5094338;28;20439;-57
2024/01/25 01:48:21;;;;;;;13.83;1.87;;;;;;;3.13;76.69;95782.38;5094278;28;20441;-58
2024/01/25 01:50:49;;;;;;;1.40;1.30;;;;;;;3.53;75.45;95768.00;5094008;28;20439;-57
2024/01/25 01:53:20;;;;;;;4.23;1.03;;;;;;;3.77;72.39;95769.78;5094012;28;20472;-58
2024/01/25 01:55:49;;;;;;;0.83;0.83;;;;;;;3.79;72.16;95772.97;5093533;28;20488;-57
2024/01/25 01:58:20;;;;;;;1.23;1.03;;;;;;;3.61;73.04;95766.91;5093983;28;20459;-57
2024/01/25 02:00:51;;;;;;;5.83;1.23;;;;;;;3.79;71.70;95762.50;5094253;28;20447;-57
2024/01/25 02:03:20;;;;;;;3.63;1.97;;;;;;;3.87;71.31;95761.44;5081144;28;20444;-58
2024/01/25 02:05:49;;;;;;;2.40;2.30;;;;;;;3.77;71.60;95759.28;5093520;28;20527;-57
2024/01/25 02:08:19;;;;;;;4.00;3.63;;;;;;;3.73;72.37;95767.81;5094303;28;20984;-58
2024/01/25 02:10:47;;;;;;;3.77;0.93;;;;;;;3.95;73.03;95765.59;5093942;28;20429;-57
2024/01/25 02:13:16;;;;;;;1.63;1.53;;;;;;;3.79;71.57;95743.38;5085261;28;20502;-57
2024/01/25 02:15:46;;;;;;;1.40;1.23;;;;;;;3.81;71.09;95747.38;5089080;28;20479;-57
2024/01/25 02:18:15;;;;;;;2.40;2.10;;;;;;;3.96;70.40;95735.72;5093528;28;20527;-57
2024/01/25 02:20:44;;;;;;;1.13;1.10;;;;;;;4.04;69.64;95731.00;5093178;28;20795;-57
2024/01/25 02:23:14;;;;;;;11.30;2.40;;;;;;;3.53;70.00;95707.72;5093384;28;20428;-58
2024/01/25 02:25:42;;;;;;;18.67;1.37;;;;;;;3.76;70.20;95744.59;5093626;28;20523;-57
2024/01/25 02:28:11;;;;;;;4.43;1.17;;;;;;;3.53;71.41;95741.78;5093400;28;20441;-58
2024/01/25 02:30:40;;;;;;;2.23;2.13;;;;;;;3.03;74.29;95745.38;5093091;28;20465;-57
2024/01/25 02:33:09;;;;;;;3.13;2.13;;;;;;;3.25;74.88;95753.69;5093498;28;20464;-57
2024/01/25 02:35:38;;;;;;;1.80;1.70;;;;;;;3.52;73.41;95749.84;5092457;28;20479;-58
2024/01/25 02:38:07;;;;;;;3.07;1.87;;;;;;;3.61;73.05;95753.81;5092641;28;20436;-58
2024/01/25 02:40:37;;;;;;;2.10;1.50;;;;;;;3.80;72.17;95737.09;5093180;28;20440;-57
2024/01/25 02:43:06;;;;;;;0.80;0.80;;;;;;;3.98;71.45;95754.66;5093023;28;20523;-57
2024/01/25 02:45:34;;;;;;;1.93;1.67;;;;;;;4.02;72.55;95740.09;5067019;28;20448;-57
2024/01/25 02:48:03;;;;;;;2.30;1.27;;;;;;;3.97;71.50;95738.16;5092492;28;20898;-57
2024/01/25 02:50:32;;;;;;;2.17;1.37;;;;;;;4.06;71.92;95736.03;5093133;28;20532;-58
2024/01/25 02:53:01;;;;;;;2.20;2.00;;;;;;;4.08;71.66;95731.34;5093086;28;20443;-57
2024/01/25 02:55:29;;;;;;;1.70;1.60;;;;;;;4.11;71.47;95733.53;5092504;28;21003;-58
2024/01/25 02:57:59;;;;;;;1.87;1.00;;;;;;;4.25;70.94;95738.41;5092070;28;20444;-58
2024/01/25 03:00:28;;;;;;;1.67;1.57;;;;;;;4.30;70.20;95737.78;5092719;28;20591;-57
2024/01/25 03:02:57;;;;;;;1.53;1.43;;;;;;;4.24;69.80;95730.78;5092125;28;20468;-57
2024/01/25 03:05:25;;;;;;;1.67;1.60;;;;;;;3.98;69.65;95696.97;5093016;28;20442;-58
2024/01/25 03:07:54;;;;;;;1.77;1.17;;;;;;;4.11;69.97;95726.47;5091962;28;20997;-58
2024/01/25 03:10:23;;;;;;;1.03;0.93;;;;;;;4.16;70.31;95725.81;5092089;28;20441;-58
2024/01/25 03:12:52;;;;;;;6.43;1.37;;;;;;;3.98;71.11;95715.31;5091786;28;20502;-57
2024/01/25 03:15:22;;;;;;;1.17;0.83;;;;;;;4.11;70.49;95723.84;5092190;28;20440;-58
2024/01/25 03:17:50;;;;;;;4.00;2.30;;;;;;;4.04;71.60;95709.22;5092232;28;20513;-58
2024/01/25 03:20:19;;;;;;;2.73;2.53;;;;;;;4.17;70.82;95702.00;5092368;28;20444;-58
2024/01/25 03:22:48;;;;;;;5.33;2.57;;;;;;;3.85;69.86;95620.06;5092118;28;20447;-58
2024/01/25 03:25:17;;;;;;;2.80;2.10;;;;;;;4.39;70.03;95697.91;5092190;28;21086;-58
2024/01/25 03:27:46;;;;;;;1.80;1.70;;;;;;;3.80;69.81;95612.06;5092319;28;20455;-58
2024/01/25 03:30:15;;;;;;;2.70;2.50;;;;;;;4.34;69.68;95692.50;5092096;28;20443;-58
2024/01/25 03:32:47;;;;;;;2.33;2.23;;;;;;;4.40;69.49;95702.09;5092047;28;20436;-57
2024/01/25 03:35:17;;;;;;;2.97;2.73;;;;;;;4.30;69.07;95706.31;5091636;28;20444;-59
2024/01/25 03:37:46;;;;;;;8.70;3.40;;;;;;;4.34;70.19;95712.69;5091552;28;20525;-57
2024/01/25 03:40:15;;;;;;;2.03;1.93;;;;;;;4.48;69.96;95714.13;5092182;28;20439;-58
2024/01/25 03:42:43;;;;;;;4.00;2.80;;;;;;;4.49;68.98;95692.91;5091562;28;20436;-58
2024/01/25 03:45:25;;;;;;;1.73;1.13;;;;;;;4.46;68.85;95671.56;5091549;28;20429;-58
2024/01/25 03:47:57;;;;;;;2.63;2.43;;;;;;;4.12;68.74;95580.41;5091800;28;20980;-58
2024/01/25 03:50:25;;;;;;;1.60;1.50;;;;;;;4.19;68.31;95599.47;5091312;28;20523;-57
2024/01/25 03:52:54;;;;;;;4.20;4.00;;;;;;;4.40;69.34;95631.25;5090837;28;20449;-57
2024/01/25 03:55:23;;;;;;;2.80;1.53;;;;;;;4.39;69.10;95616.56;5091796;28;20444;-58
2024/01/25 03:57:52;;;;;;;1.83;1.73;;;;;;;4.74;68.90;95677.03;5090988;28;20476;-57
2024/01/25 04:00:38;;;;;;;2.57;1.53;;;;;;;4.56;68.82;95653.44;5091388;28;20446;-57
2024/01/25 04:03:08;;;;;;;2.80;1.40;;;;;;;4.31;67.83;95629.97;5091129;28;20475;-58
2024/01/25 04:05:37;;;;;;;4.70;2.60;;;;;;;4.58;68.21;95671.63;5090741;28;20447;-58
2024/01/25 04:08:06;;;;;;;4.13;1.67;;;;;;;4.70;69.15;95665.38;5091030;28;20441;-58
2024/01/25 04:10:35;;;;;;;1.50;1.40;;;;;;;4.18;67.82;95617.03;5091512;28;20517;-58
2024/01/25 04:13:04;;;;;;;4.83;2.10;;;;;;;4.54;67.77;95660.75;5091280;28;20478;-58
2024/01/25 04:15:33;;;;;;;1.60;1.50;;;;;;;4.65;68.02;95669.69;5090573;28;20445;-57
2024/01/25 04:18:02;;;;;;;2.60;1.50;;;;;;;4.61;68.61;95658.84;5091468;28;20570;-58
2024/01/25 04:20:34;;;;;;;1.80;1.70;;;;;;;4.48;69.28;95659.81;5091024;28;20439;-58
2024/01/25 04:23:03;;;;;;;1.50;1.20;;;;;;;4.25;70.32;95682.53;5091267;28;20947;-58
2024/01/25 04:25:31;;;;;;;1.23;1.23;;;;;;;4.17;69.86;95677.59;5091348;28;20429;-57
2024/01/25 04:28:02;;;;;;;0.87;0.73;;;;;;;4.25;70.07;95687.78;5090759;28;20464;-58
2024/01/25 04:30:32;;;;;;;1.10;1.00;;;;;;;4.31;68.94;95702.63;5091308;28;20454;-58
2024/01/25 04:33:01;;;;;;;1.80;1.00;;;;;;;3.22;72.08;95624.75;5091395;28;20444;-58
2024/01/25 04:35:31;;;;;;;2.90;1.43;;;;;;;3.15;74.58;95646.78;5090842;28;20494;-58
2024/01/25 04:38:02;;;;;;;4.60;2.40;;;;;;;3.20;76.28;95681.00;5090319;28;20480;-58
2024/01/25 04:40:30;;;;;;;8.00;1.50;;;;;;;3.14;76.15;95658.28;5090924;28;20809;-58
2024/01/25 04:42:59;;;;;;;8.57;1.80;;;;;;;3.55;76.74;95666.38;5090866;28;20452;-58
2024/01/25 04:45:28;;;;;;;2.50;2.30;;;;;;;3.67;74.68;95664.63;5090929;28;20442;-57
2024/01/25 04:47:56;;;;;;;2.57;1.60;;;;;;;3.80;73.93;95666.31;5091144;28;20436;-58
2024/01/25 04:50:25;;;;;;;2.93;1.40;;;;;;;3.59;74.38;95667.53;5064700;28;20436;-58
2024/01/25 04:52:54;;;;;;;1.73;1.63;;;;;;;3.49;74.00;95603.56;5090951;28;20444;-58
2024/01/25 04:55:24;;;;;;;2.40;1.70;;;;;;;3.92;73.03;95640.16;5091102;28;20469;-59
2024/01/25 04:57:53;;;;;;;2.17;1.97;;;;;;;3.59;73.99;95649.19;5090471;28;20471;-58
2024/01/25 05:00:23;;;;;;;5.03;2.30;;;;;;;3.37;75.40;95658.47;5091503;28;20789;-58
2024/01/25 05:02:52;;;;;;;4.20;1.50;;;;;;;3.33;76.54;95646.84;5095028;28;20436;-58
2024/01/25 05:05:20;;;;;;;0.90;0.90;;;;;;;3.57;75.15;95651.22;5094717;28;20440;-60
2024/01/25 05:07:49;;;;;;;2.20;1.80;;;;;;;3.74;74.17;95649.63;5094451;28;20472;-58
2024/01/25 05:10:19;;;;;;;6.40;2.43;;;;;;;3.70;74.06;95645.03;5094183;28;20957;-58
2024/01/25 05:12:49;;;;;;;1.33;1.27;;;;;;;3.76;73.79;95647.59;5094593;28;20433;-58
2024/01/25 05:15:18;;;;;;;2.50;2.00;;;;;;;3.83;73.27;95669.31;5094501;28;20444;-58
2024/01/25 05:17:46;;;;;;;0.70;0.70;;;;;;;3.92;73.89;95682.94;5094608;28;20926;-58
2024/01/25 05:20:17;;;;;;;3.63;3.37;;;;;;;2.81;75.98;95637.59;5094504;28;20987;-61
2024/01/25 05:22:46;;;;;;;2.60;2.20;;;;;;;3.40;76.33;95678.19;5093718;28;20495;-59
2024/01/25 05:25:15;;;;;;;2.67;1.57;;;;;;;3.69;74.46;95674.91;5093823;28;20484;-57
2024/01/25 05:27:44;;;;;;;9.50;4.50;;;;;;;3.69;73.29;95657.34;5093152;28;20438;-58
2024/01/25 05:30:15;;;;;;;2.70;1.80;;;;;;;3.90;72.99;95678.94;5093081;28;20437;-57
2024/01/25 05:32:43;;;;;;;4.60;4.30;;;;;;;3.94;72.93;95704.47;5093837;28;20428;-58
2024/01/25 05:35:13;;;;;;;11.93;3.17;;;;;;;4.08;71.65;95708.56;5094316;28;20436;-58
2024/01/25 05:37:41;;;;;;;7.33;2.93;;;;;;;4.06;71.33;95697.47;5091419;28;20479;-58
2024/01/25 05:40:11;;;;;;;11.27;5.03;;;;;;;3.65;73.39;95699.94;5085876;28;20967;-58
2024/01/25 05:42:40;;;;;;;10.50;3.67;;;;;;;3.94;72.90;95712.34;5093435;28;20439;-58
2024/01/25 05:45:09;;;;;;;4.93;1.97;;;;;;;4.11;72.51;95694.19;5093524;28;20432;-58
2024/01/25 05:47:39;;;;;;;5.20;3.60;;;;;;;3.97;71.15;95653.44;5093350;28;20507;-57
2024/01/25 05:50:09;;;;;;;7.13;2.87;;;;;;;3.75;72.34;95684.50;5093869;28;20432;-58
2024/01/25 05:52:38;;;;;;;6.00;5.50;;;;;;;3.76;73.45;95704.47;5093521;28;20519;-58
2024/01/25 05:55:07;;;;;;;10.07;4.37;;;;;;;3.71;73.63;95709.56;5093156;28;20476;-57
2024/01/25 05:57:37;;;;;;;17.80;5.10;;;;;;;3.71;73.87;95710.38;5093923;28;20553;-58
2024/01/25 06:00:08;;;;;;;4.30;3.87;;;;;;;3.56;72.89;95647.00;5093354;28;20511;-58
2024/01/25 06:02:36;;;;;;;13.33;5.13;;;;;;;3.55;74.77;95663.75;5093083;28;20440;-58
2024/01/25 06:05:07;;;;;;;7.00;3.43;;;;;;;3.35;75.10;95644.78;5093487;28;20444;-58
2024/01/25 06:07:36;;;;;;;16.27;5.50;;;;;;;3.27;76.96;95633.78;5093318;28;20444;-57
2024/01/25 06:10:06;;;;;;;9.43;5.10;;;;;;;3.71;75.20;95644.03;5093610;28;20476;-58
2024/01/25 06:12:34;;;;;;;16.57;5.10;;;;;;;3.74;74.17;95662.72;5092791;28;20509;-57
2024/01/25 06:15:03;;;;;;;19.73;6.23;;;;;;;2.58;76.20;95622.47;5093347;28;20440;-58
2024/01/25 06:17:32;;;;;;;7.83;5.00;;;;;;;2.77;82.73;95683.53;5092575;28;20572;-57
2024/01/25 06:20:01;;;;;;;5.50;5.00;;;;;;;2.48;82.60;95622.13;5093496;28;20455;-59
2024/01/25 06:22:31;;;;;;;8.53;4.17;;;;;;;2.87;81.94;95690.91;5092236;28;20932;-58
2024/01/25 06:25:00;;;;;;;7.77;3.13;;;;;;;2.42;84.89;95685.75;5093314;28;20436;-58
2024/01/25 06:27:29;;;;;;;4.73;2.53;;;;;;;2.69;84.50;95703.91;5092755;28;20975;-58
2024/01/25 06:29:58;;;;;;;1.93;1.83;;;;;;;3.12;82.45;95702.22;5092834;28;20432;-58
2024/01/25 06:32:26;;;;;;;1.67;1.13;;;;;;;3.45;80.31;95683.59;5092950;28;20481;-58
2024/01/25 06:34:55;;;;;;;1.97;1.83;;;;;;;3.79;76.74;95678.59;5092993;28;20436;-58
2024/01/25 06:37:24;;;;;;;3.40;1.57;;;;;;;3.69;77.60;95683.53;5092637;28;20960;-57
2024/01/25 06:39:54;;;;;;;5.40;2.03;;;;;;;3.68;77.46;95660.19;5092984;28;20445;-59
2024/01/25 06:42:23;;;;;;;3.20;2.77;;;;;;;3.92;76.19;95655.91;5093181;28;20963;-58
2024/01/25 06:44:52;;;;;;;3.77;3.53;;;;;;;3.85;76.26;95642.84;5092796;28;20447;-58
2024/01/25 06:47:20;;;;;;;10.03;5.07;;;;;;;4.01;77.60;95633.59;5083858;28;20438;-58
2024/01/25 06:49:51;;;;;;;4.70;4.30;;;;;;;4.02;80.31;95656.19;5090437;28;20523;-57
2024/01/25 06:52:20;;;;;;;7.43;6.40;;;;;;;3.32;79.10;95577.09;5092564;28;20520;-60
2024/01/25 06:54:49;;;;;;;7.30;3.70;;;;;;;3.85;78.37;95651.53;5090901;28;20551;-59
2024/01/25 06:57:20;;;;;;;2.50;2.30;;;;;;;4.05;75.74;95645.25;5090574;28;20439;-58
2024/01/25 06:59:49;;;;;;;3.37;2.93;;;;;;;4.05;75.17;95647.88;5092594;28;20476;-57
2024/01/25 07:02:18;;;;;;;4.97;4.17;;;;;;;3.94;74.40;95625.00;5092392;28;20961;-57
2024/01/25 07:04:47;;;;;;;7.83;5.10;;;;;;;2.70;78.40;95548.50;5092417;28;20447;-57
2024/01/25 07:07:16;;;;;;;9.10;7.67;;;;;;;2.48;85.98;95666.59;5092544;28;20508;-58
2024/01/25 07:09:45;;;;;;;9.30;5.80;;;;;;;3.08;86.84;95622.47;5092421;28;20440;-57
2024/01/25 07:12:14;;;;;;;8.73;5.70;;;;;;;2.82;88.02;95654.09;5092451;28;20476;-57
2024/01/25 07:14:44;;;;;;;4.67;4.27;;;;;;;2.55;88.69;95612.41;5092254;28;20860;-57
2024/01/25 07:17:12;;;;;;;5.53;3.53;;;;;;;2.47;87.10;95662.41;5091630;28;20436;-57
2024/01/25 07:19:41;;;;;;;11.93;4.60;;;;;;;2.52;87.09;95638.22;5092797;28;20893;-57
2024/01/25 07:22:11;;;;;;;3.43;2.13;;;;;;;2.66;95.07;95638.94;5091637;28;20432;-58
2024/01/25 07:24:40;;;;;;;6.60;3.83;;;;;;;2.54;90.32;95617.88;5091713;28;20497;-57
2024/01/25 07:27:09;;;;;;;1.80;1.70;;;;;;;2.77;89.97;95618.09;5089055;28;20533;-57
2024/01/25 07:29:38;;;;;;;6.50;6.00;;;;;;;1.64;89.81;95508.41;5081954;28;20947;-57
2024/01/25 07:32:08;;;;;;;4.93;4.73;;;;;;;2.72;91.70;95604.06;5091781;28;20429;-58
2024/01/25 07:34:37;;;;;;;4.30;3.30;;;;;;;2.99;87.42;95566.97;5092194;28;20490;-57
2024/01/25 07:37:06;;;;;;;6.20;3.93;;;;;;;3.79;84.75;95586.84;5091386;28;20433;-58
2024/01/25 07:39:35;;;;;;;6.63;6.23;;;;;;;4.56;79.36;95587.81;5091535;28;20472;-60
2024/01/25 07:42:03;;;;;;;7.67;4.27;;;;;;;5.31;72.14;95509.19;5087050;28;20971;-59
2024/01/25 07:44:32;;;;;;;8.33;3.73;;;;;;;6.75;67.60;95599.03;5091716;28;20436;-59
2024/01/25 07:47:02;;;;;;;16.23;4.17;;;;;;;7.01;65.09;95621.31;5064821;28;20446;-60
2024/01/25 07:49:32;;;;;;;6.90;2.37;;;;;;;7.52;64.24;95589.41;5091618;28;20439;-58
2024/01/25 07:52:01;;;;;;;6.17;3.80;;;;;;;8.44;62.94;95615.91;5091147;28;20440;-58
2024/01/25 07:54:29;;;;;;;3.77;3.53;;;;;;;9.22;59.13;95588.84;5090671;28;21038;-57
2024/01/25 07:56:58;;;;;;;10.50;4.40;;;;;;;9.20;56.48;95576.94;5090971;28;20441;-58
2024/01/25 07:59:27;;;;;;;6.77;4.10;;;;;;;9.50;57.15;95583.22;5091005;28;20476;-57
2024/01/25 08:01:55;;;;;;;7.37;3.70;;;;;;;9.48;54.05;95564.16;5091328;28;20440;-57
2024/01/25 08:04:24;;;;;;;5.43;3.77;;;;;;;9.81;55.12;95586.03;5091341;28;20448;-57
2024/01/25 08:06:54;;;;;;;4.33;3.20;;;;;;;9.45;53.85;95566.50;5091289;28;20812;-57
2024/01/25 08:09:23;;;;;;;7.67;2.27;;;;;;;9.19;54.66;95591.19;5090186;28;20483;-57
2024/01/25 08:11:52;;;;;;;6.40;3.30;;;;;;;9.02;54.96;95579.97;5090780;28;21032;-57
2024/01/25 08:14:21;;;;;;;3.40;3.10;;;;;;;8.91;54.58;95595.75;5091180;28;20428;-56
2024/01/25 08:16:49;;;;;;;2.03;1.93;;;;;;;8.62;55.26;95519.66;5091318;28;20447;-56
2024/01/25 08:19:18;;;;;;;2.10;2.00;;;;;;;9.86;54.39;95578.91;5090711;28;20472;-57
2024/01/25 08:21:47;;;;;;;2.20;2.10;;;;;;;10.74;52.95;95561.16;5091523;28;20467;-59
2024/01/25 08:24:18;;;;;;;2.83;2.73;;;;;;;10.91;53.52;95576.81;5090962;28;20440;-58
2024/01/25 08:26:46;;;;;;;1.37;1.27;;;;;;;11.33;50.68;95527.72;5090599;28;20446;-58
2024/01/25 08:29:15;;;;;;;2.80;2.20;;;;;;;11.92;48.91;95556.25;5090242;28;20455;-59
2024/01/25 08:31:44;;;;;;;5.87;3.00;;;;;;;12.51;46.92;95540.31;5090796;28;20432;-57
2024/01/25 08:34:12;;;;;;;7.20;4.10;;;;;;;13.60;44.88;95544.22;5091157;28;20443;-57
2024/01/25 08:36:41;;;;;;;3.63;3.33;;;;;;;14.18;44.68;95552.88;5093091;28;20463;-56
2024/01/25 08:39:10;;;;;;;2.87;2.63;;;;;;;14.15;43.71;95532.94;5095163;28;20479;-57
2024/01/25 08:41:41;;;;;;;10.80;2.00;;;;;;;14.50;44.98;95551.16;5094859;28;20439;-58
2024/01/25 08:44:10;;;;;;;16.77;3.03;;;;;;;14.31;43.49;95544.22;5095235;28;20467;-59
2024/01/25 08:46:39;;;;;;;8.23;6.20;;;;;;;14.00;43.95;95535.78;5094433;28;20854;-59
2024/01/25 08:49:09;;;;;;;5.23;4.63;;;;;;;14.38;43.73;95528.66;5095462;28;20440;-60
2024/01/25 08:51:39;;;;;;;12.60;3.97;;;;;;;13.70;44.00;95490.84;5094740;28;21010;-61
2024/01/25 08:54:08;;;;;;;3.77;3.03;;;;;;;14.09;43.94;95517.31;5094234;28;20510;-60
2024/01/25 08:56:37;;;;;;;3.57;3.27;;;;;;;13.11;45.64;95521.25;5094713;28;20432;-58
2024/01/25 08:59:07;;;;;;;5.10;4.80;;;;;;;11.23;48.36;95476.56;5094800;28;20472;-60
2024/01/25 09:01:36;;;;;;;6.20;3.57;;;;;;;11.01;50.50;95481.34;5094477;28;20464;-63
2024/01/25 09:04:07;;;;;;;2.03;1.83;;;;;;;11.28;50.68;95506.50;5094989;28;20432;-64
2024/01/25 09:06:38;;;;;;;2.17;1.50;;;;;;;11.46;50.42;95511.25;5080103;28;20469;-63
2024/01/25 09:09:06;;;;;;;3.50;2.60;;;;;;;11.49;48.91;95478.84;5094346;28;20493;-61
2024/01/25 09:11:35;;;;;;;16.50;2.40;;;;;;;11.83;49.27;95523.38;5094338;28;20471;-58
2024/01/25 09:14:03;;;;;;;5.17;4.10;;;;;;;11.48;49.54;95538.31;5095159;28;20986;-57
2024/01/25 09:16:33;;;;;;;5.93;2.70;;;;;;;12.34;48.37;95548.66;5094131;28;20937;-60
2024/01/25 09:19:02;;;;;;;12.73;2.90;;;;;;;13.24;46.38;95557.09;5094664;28;20972;-60
2024/01/25 09:21:31;;;;;;;3.33;3.13;;;;;;;11.41;48.34;95553.72;5094146;28;20445;-60
2024/01/25 09:24:00;;;;;;;3.63;3.27;;;;;;;10.17;50.35;95476.56;5093710;28;20537;-63
2024/01/25 09:26:29;;;;;;;3.43;1.57;;;;;;;10.78;50.17;95514.50;5094361;28;20515;-65
2024/01/25 09:28:58;;;;;;;1.90;1.40;;;;;;;10.55;50.24;95477.94;5094403;28;20440;-61
2024/01/25 09:31:27;;;;;;;3.00;2.80;;;;;;;8.95;54.26;95492.94;5094005;28;20519;-60
2024/01/25 09:33:57;;;;;;;2.00;1.77;;;;;;;9.37;53.50;95488.44;5093557;28;20468;-60
2024/01/25 09:36:26;;;;;;;3.07;1.67;;;;;;;8.70;55.28;95447.84;5077420;28;21031;-58
2024/01/25 09:38:55;;;;;;;3.07;2.87;;;;;;;8.82;55.39;95483.63;5093558;28;20835;-58
2024/01/25 09:41:23;;;;;;;4.33;1.07;;;;;;;9.09;55.81;95482.72;5080047;28;20502;-58
2024/01/25 09:43:53;;;;;;;9.50;0.80;;;;;;;9.89;53.64;95480.41;5086198;28;20439;-60
2024/01/25 09:46:22;;;;;;;1.90;1.80;;;;;;;10.52;53.09;95459.91;5088309;28;20436;-59
2024/01/25 09:48:51;;;;;;;1.73;1.57;;;;;;;11.58;50.66;95457.06;5093904;28;20436;-63
2024/01/25 09:51:21;;;;;;;1.20;1.20;;;;;;;13.20;50.47;95466.38;5092886;28;20437;-61
2024/01/25 09:53:51;;;;;;;1.10;1.00;;;;;;;14.35;45.60;95455.38;5084610;28;20473;-60
2024/01/25 09:56:22;;;;;;;9.03;2.87;;;;;;;13.77;45.88;95446.00;5092987;28;20447;-56
2024/01/25 09:58:53;;;;;;;2.20;2.10;;;;;;;14.34;45.13;95453.00;5091865;28;20535;-58
2024/01/25 10:01:21;;;;;;;2.60;2.40;;;;;;;14.67;44.96;95453.84;5092090;28;20890;-59
2024/01/25 10:03:50;;;;;;;2.23;2.03;;;;;;;15.12;44.02;95426.38;5092594;28;20442;-59
2024/01/25 10:06:20;;;;;;;3.73;2.10;;;;;;;15.72;42.98;95414.53;5091984;28;20432;-59
2024/01/25 10:08:51;;;;;;;2.40;1.97;;;;;;;16.00;41.85;95390.44;5086696;28;21027;-59
2024/01/25 10:11:20;;;;;;;4.53;4.23;;;;;;;16.23;41.12;95390.19;5086427;28;20444;-58
2024/01/25 10:13:50;;;;;;;2.63;2.53;;;;;;;16.35;42.27;95386.94;5089561;28;20454;-58
2024/01/25 10:16:20;;;;;;;2.53;1.83;;;;;;;15.65;40.87;95349.25;5093823;28;20450;-59
2024/01/25 10:18:49;;;;;;;20.67;10.17;;;;;;;15.97;41.12;95388.34;5093463;28;20443;-62
2024/01/25 10:21:21;;;;;;;3.80;3.50;;;;;;;16.63;39.30;95384.97;5092785;28;20480;-65
2024/01/25 10:23:54;;;;;;;8.37;4.80;;;;;;;17.91;38.80;95382.84;5092541;28;20901;-66
2024/01/25 10:26:23;;;;;;;2.00;1.83;;;;;;;18.22;35.46;95337.13;5093212;28;20465;-66
2024/01/25 10:28:55;;;;;;;2.60;2.50;;;;;;;19.54;35.10;95388.81;5093120;28;20443;-64
2024/01/25 10:31:31;;;;;;;2.13;1.47;;;;;;;19.74;35.92;95355.00;5092639;28;20527;-64
2024/01/25 10:34:01;;;;;;;2.73;2.33;;;;;;;20.27;34.33;95381.28;5093241;28;20436;-62
2024/01/25 10:36:31;;;;;;;2.80;2.43;;;;;;;19.53;33.87;95333.47;5092460;28;20518;-61
2024/01/25 10:39:05;;;;;;;26.27;3.00;;;;;;;20.21;33.11;95371.81;5093395;28;20497;-61
2024/01/25 10:41:35;;;;;;;3.43;1.90;;;;;;;20.11;33.63;95337.22;5092798;28;20529;-60
2024/01/25 10:44:06;;;;;;;2.00;1.90;;;;;;;21.51;31.93;95298.19;5092398;28;20970;-60
2024/01/25 10:46:35;;;;;;;2.20;1.20;;;;;;;21.41;30.40;95295.94;5089531;28;20857;-60
2024/01/25 10:49:04;;;;;;;1.63;1.03;;;;;;;22.55;29.80;95333.25;5092880;28;20490;-60
2024/01/25 10:51:33;;;;;;;3.37;3.07;;;;;;;21.39;30.66;95300.88;5092080;28;20440;-60
2024/01/25 10:54:06;;;;;;;4.20;1.50;;;;;;;21.44;30.62;95326.84;5092652;28;20460;-59
2024/01/25 10:56:36;;;;;;;1.63;1.53;;;;;;;19.39;31.14;95302.56;5091371;28;20432;-58
2024/01/25 10:59:06;;;;;;;3.17;1.60;;;;;;;19.42;29.65;95345.72;5091860;28;21054;-60
2024/01/25 11:01:35;;;;;;;0.93;0.93;;;;;;;18.03;29.38;95336.66;5087677;28;20483;-59
2024/01/25 11:04:04;;;;;;;0.40;0.30;;;;;;;16.62;29.10;95322.63;5092824;28;20527;-61
2024/01/25 11:06:33;;;;;;;0.40;0.30;;;;;;;16.62;29.96;95314.59;5091520;28;20441;-60
2024/01/25 11:09:09;;;;;;;0.40;0.30;;;;;;;16.52;34.23;95253.31;5092076;28;20479;-61
2024/01/25 11:11:38;;;;;;;0.70;0.30;;;;;;;16.71;29.34;95277.19;5092027;28;20438;-62
2024/01/25 11:14:13;;;;;;;0.50;0.40;;;;;;;17.11;28.94;95278.75;5092382;28;20437;-62
2024/01/25 11:16:44;;;;;;;0.40;0.30;;;;;;;16.54;29.59;95237.78;5090820;28;20436;-61
2024/01/25 11:19:18;;;;;;;0.40;0.30;;;;;;;16.98;29.90;95261.72;5091819;28;20528;-60
2024/01/25 11:21:48;;;;;;;0.40;0.30;;;;;;;16.74;33.53;95273.91;5091677;28;20563;-60
2024/01/25 11:24:22;;;;;;;0.60;0.30;;;;;;;16.33;30.85;95282.94;5092210;28;20878;-58
2024/01/25 11:26:51;;;;;;;0.50;0.40;;;;;;;15.94;29.73;95241.97;5091917;28;20444;-59
2024/01/25 11:29:22;;;;;;;0.60;0.30;;;;;;;15.79;31.22;95294.66;5091926;28;20432;-58
2024/01/25 11:31:52;;;;;;;0.40;0.20;;;;;;;16.90;31.22;95275.09;5091344;28;20447;-61
2024/01/25 11:34:21;;;;;;;0.40;0.33;;;;;;;18.29;30.12;95283.78;5091196;28;20498;-60
2024/01/25 11:36:51;;;;;;;0.40;0.30;;;;;;;19.87;30.90;95264.44;5091320;28;20458;-62
2024/01/25 11:39:21;;;;;;;0.43;0.30;;;;;;;19.28;28.50;95285.19;5091053;28;20468;-65
2024/01/25 11:41:53;;;;;;;0.40;0.30;;;;;;;19.58;27.65;95294.88;5078492;28;20484;-60
2024/01/25 11:44:24;;;;;;;0.60;0.30;;;;;;;18.38;31.14;95258.50;5064931;28;20500;-59
2024/01/25 11:46:55;;;;;;;0.50;0.30;;;;;;;18.94;32.57;95292.31;5091437;28;20436;-60
2024/01/25 11:49:25;;;;;;;0.40;0.30;;;;;;;18.70;28.09;95273.28;5092081;28;20505;-63